Usurbil, Spain
Current Conditions -  °F | °C
As of 4:30 PM on Saturday 25 Oct 2014 (Local Time) from LESO Reporting Station
Clear Clear  
Wind Chill: 70°   Ceiling: Unl
Heat Index: 70°   Visibility: 6mi
Dew Point: 63°   Wind: 6mph
Humidity: 78%   Direction: 20°NNE
Pressure: 30.15"   Gusts: NA
Location:  43.27°N, 2.05°W
Report Text: LESO 251430Z 02005KT CAVOK 21/17 Q1021
Loading
Personal Weather Stations






























Interactive Weather Map
Tropical Storm Tracking
New forecast layout! Learn more

10-Day Weather Forecast

Advertisements
Track Severe Weather on mobile